createdAt,value
2019-05-07T00:01:56.867Z,10.40
2019-05-07T00:05:12.047Z,10.63
2019-05-07T00:08:25.828Z,9.17
2019-05-07T00:11:39.753Z,9.37
2019-05-07T00:15:00.941Z,9.17
2019-05-07T00:18:08.974Z,8.93
2019-05-07T00:21:23.464Z,9.20
2019-05-07T00:24:37.072Z,8.27
2019-05-07T00:27:52.334Z,9.43
2019-05-07T00:31:06.070Z,9.17
2019-05-07T00:34:22.089Z,8.37
2019-05-07T00:37:43.159Z,7.83
2019-05-07T00:41:16.242Z,9.00
2019-05-07T00:44:32.693Z,8.77
2019-05-07T00:47:46.143Z,8.40
2019-05-07T00:51:18.061Z,9.30
2019-05-07T00:54:32.545Z,8.60
2019-05-07T00:57:46.104Z,8.33
2019-05-07T01:00:59.601Z,8.37
2019-05-07T01:04:13.217Z,9.03
2019-05-07T01:07:26.819Z,8.73
2019-05-07T01:10:41.973Z,8.10
2019-05-07T01:13:55.559Z,8.40
2019-05-07T01:17:09.440Z,8.90
2019-05-07T01:20:22.947Z,8.50
2019-05-07T01:23:36.638Z,8.53
2019-05-07T01:26:50.345Z,8.63
2019-05-07T01:30:04.906Z,8.87
2019-05-07T01:33:44.516Z,7.90
2019-05-07T01:36:58.325Z,8.60
2019-05-07T01:40:12.326Z,7.70
2019-05-07T01:43:25.926Z,8.27
2019-05-07T01:46:39.421Z,9.50
2019-05-07T01:49:55.114Z,8.03
2019-05-07T01:53:08.681Z,8.37
2019-05-07T01:56:22.982Z,8.47
2019-05-07T01:59:36.566Z,8.63
2019-05-07T02:02:56.001Z,7.80
2019-05-07T02:06:32.792Z,8.00
2019-05-07T02:10:11.989Z,7.97
2019-05-07T02:13:25.544Z,8.70
2019-05-07T02:16:39.416Z,8.13
2019-05-07T02:19:52.909Z,7.63
2019-05-07T02:23:06.480Z,7.50
2019-05-07T02:26:22.378Z,7.50
2019-05-07T02:29:38.114Z,7.43
2019-05-07T02:32:54.026Z,7.73
2019-05-07T02:36:06.963Z,7.40
2019-05-07T02:39:27.363Z,8.17
2019-05-07T02:42:44.073Z,7.83
2019-05-07T02:46:26.471Z,6.87
2019-05-07T02:49:43.814Z,7.77
2019-05-07T02:53:04.382Z,10.53
2019-05-07T02:56:23.538Z,9.57
2019-05-07T02:59:36.782Z,7.67
2019-05-07T03:02:52.975Z,7.50
2019-05-07T03:06:06.153Z,7.90
2019-05-07T03:09:22.606Z,8.10
2019-05-07T03:12:35.115Z,8.53
2019-05-07T03:15:48.735Z,8.60
2019-05-07T03:19:04.117Z,7.87
2019-05-07T03:22:17.819Z,7.80
2019-05-07T03:25:53.807Z,7.53
2019-05-07T03:29:13.094Z,9.23
2019-05-07T03:32:38.190Z,7.27
2019-05-07T03:35:56.015Z,7.60
2019-05-07T03:39:09.353Z,8.60
2019-05-07T03:42:23.635Z,8.47
2019-05-07T03:45:57.153Z,9.73
2019-05-07T03:49:26.144Z,8.17
2019-05-07T03:52:42.632Z,7.00
2019-05-07T03:55:55.689Z,7.83
2019-05-07T03:59:13.038Z,8.13
2019-05-07T04:02:26.685Z,8.07
2019-05-07T04:05:43.028Z,8.50
2019-05-07T04:08:55.685Z,8.07
2019-05-07T04:12:09.295Z,7.60
2019-05-07T04:15:23.523Z,8.23
2019-05-07T04:18:37.534Z,7.47
2019-05-07T04:21:53.404Z,8.07
2019-05-07T04:25:24.714Z,7.80
2019-05-07T04:29:05.543Z,7.77
2019-05-07T04:32:23.171Z,7.13
2019-05-07T04:35:43.375Z,7.57
2019-05-07T04:38:57.121Z,7.93
2019-05-07T04:42:13.251Z,6.97
2019-05-07T04:45:26.335Z,8.00
2019-05-07T04:48:39.843Z,7.60
2019-05-07T04:52:04.558Z,8.07
2019-05-07T04:55:18.151Z,7.00
2019-05-07T04:58:33.842Z,7.40
2019-05-07T05:02:09.373Z,6.90
2019-05-07T05:05:24.061Z,7.93
2019-05-07T05:08:37.510Z,8.53
2019-05-07T05:11:53.058Z,12.07
2019-05-07T05:16:42.621Z,10.10
2019-05-07T05:19:56.502Z,8.87
2019-05-07T05:23:17.908Z,10.20
2019-05-07T05:26:32.483Z,9.30
2019-05-07T05:29:46.198Z,10.80
2019-05-07T05:33:02.207Z,9.27
2019-05-07T05:36:16.927Z,8.53
2019-05-07T05:39:32.038Z,8.20
2019-05-07T05:42:52.797Z,9.07
2019-05-07T05:46:06.905Z,8.83
2019-05-07T05:49:22.789Z,8.93
2019-05-07T05:52:43.441Z,8.50
2019-05-07T05:55:59.433Z,8.40
2019-05-07T05:59:44.985Z,8.67
2019-05-07T06:02:53.945Z,19.50
2019-05-07T06:06:14.340Z,19.00
2019-05-07T06:09:38.981Z,24.80
2019-05-07T06:13:12.438Z,17.07
2019-05-07T06:16:32.737Z,12.70
2019-05-07T06:19:51.861Z,17.47
2019-05-07T06:23:33.086Z,16.53
2019-05-07T06:26:46.701Z,13.70
2019-05-07T06:30:02.870Z,11.37
2019-05-07T06:33:15.793Z,11.53
2019-05-07T06:36:32.860Z,10.80
2019-05-07T06:40:08.215Z,11.50
2019-05-07T06:43:44.627Z,10.27
2019-05-07T06:46:58.472Z,10.87
2019-05-07T06:50:12.610Z,10.40
2019-05-07T06:53:28.073Z,10.40
2019-05-07T06:56:42.170Z,10.77
2019-05-07T06:59:59.725Z,8.87
2019-05-07T07:03:35.955Z,8.43
2019-05-07T07:07:08.056Z,7.83
2019-05-07T07:10:32.347Z,7.30
2019-05-07T07:13:46.177Z,6.63
2019-05-07T07:17:02.184Z,6.77
2019-05-07T07:20:15.685Z,6.07
2019-05-07T07:23:29.573Z,5.97
2019-05-07T07:26:43.623Z,6.00
2019-05-07T07:30:03.820Z,6.63
2019-05-07T07:33:18.123Z,5.87
2019-05-07T07:36:36.239Z,6.30
2019-05-07T07:39:52.468Z,7.37
2019-05-07T07:43:07.145Z,9.57
2019-05-07T07:46:22.174Z,7.30
2019-05-07T07:49:36.022Z,8.07
2019-05-07T07:52:49.845Z,6.67
2019-05-07T07:56:48.289Z,6.93
2019-05-07T07:59:56.950Z,6.80
2019-05-07T08:03:13.237Z,7.17
2019-05-07T08:06:28.539Z,6.50
2019-05-07T08:09:42.768Z,6.57
2019-05-07T08:12:56.839Z,6.97
2019-05-07T08:16:12.794Z,6.17
2019-05-07T08:19:26.053Z,6.40
2019-05-07T08:22:39.684Z,7.43
2019-05-07T08:25:53.197Z,6.73
2019-05-07T08:29:06.690Z,6.47
2019-05-07T08:32:27.528Z,6.50
2019-05-07T08:36:02.687Z,7.20
2019-05-07T08:39:16.518Z,6.47
2019-05-07T08:42:32.057Z,6.30
2019-05-07T08:45:54.929Z,6.60
2019-05-07T08:49:09.347Z,7.00
2019-05-07T08:52:26.155Z,7.40
2019-05-07T08:55:39.472Z,10.57
2019-05-07T08:58:53.194Z,6.70
2019-05-07T09:02:06.906Z,6.30
2019-05-07T09:05:22.097Z,6.40
2019-05-07T09:08:36.310Z,6.17
2019-05-07T09:11:51.857Z,5.87
2019-05-07T09:15:06.811Z,6.17
2019-05-07T09:18:22.836Z,5.83
2019-05-07T09:21:38.063Z,14.97
2019-05-07T09:24:52.673Z,9.80
2019-05-07T09:28:06.763Z,6.30
2019-05-07T09:31:32.223Z,5.20
2019-05-07T09:34:46.626Z,4.70
2019-05-07T09:38:00.122Z,5.50
2019-05-07T09:41:25.823Z,5.33
2019-05-07T09:44:39.703Z,4.30
2019-05-07T09:47:53.410Z,4.30
2019-05-07T09:51:07.210Z,4.43
2019-05-07T09:54:22.984Z,4.30
2019-05-07T09:57:36.629Z,4.20
2019-05-07T10:00:50.345Z,3.90
2019-05-07T10:04:04.260Z,3.33
2019-05-07T10:07:18.202Z,3.43
2019-05-07T10:10:32.910Z,3.10
2019-05-07T10:13:58.096Z,3.10
2019-05-07T10:17:17.933Z,3.03
2019-05-07T10:20:32.799Z,2.90
2019-05-07T10:23:46.691Z,2.87
2019-05-07T10:27:02.258Z,3.20
2019-05-07T10:30:16.196Z,3.53
2019-05-07T10:33:31.790Z,3.50
2019-05-07T10:36:45.553Z,2.93
2019-05-07T10:39:59.578Z,3.30
2019-05-07T10:43:13.270Z,3.73
2019-05-07T10:46:45.782Z,3.43
2019-05-07T10:50:17.613Z,3.50
2019-05-07T10:53:32.079Z,4.43
2019-05-07T10:56:45.773Z,3.30
2019-05-07T10:59:59.554Z,3.40
2019-05-07T11:03:13.175Z,3.13
2019-05-07T11:06:27.132Z,3.27
2019-05-07T11:09:42.038Z,3.40
2019-05-07T11:12:56.161Z,3.60
2019-05-07T11:16:12.673Z,3.80
2019-05-07T11:19:26.278Z,3.77
2019-05-07T11:22:40.036Z,3.50
2019-05-07T11:25:53.744Z,3.40
2019-05-07T11:29:07.609Z,3.93
2019-05-07T11:32:21.631Z,3.73
2019-05-07T11:35:35.646Z,3.83
2019-05-07T11:38:49.494Z,4.03
2019-05-07T11:42:26.208Z,3.47
2019-05-07T11:45:54.021Z,3.43
2019-05-07T11:49:17.160Z,3.70
2019-05-07T11:52:35.869Z,3.43
2019-05-07T11:55:49.950Z,4.27
2019-05-07T11:59:04.275Z,3.73
2019-05-07T12:02:18.007Z,4.40
2019-05-07T12:05:33.253Z,3.97
2019-05-07T12:08:51.850Z,2.97
2019-05-07T12:12:02.649Z,2.83
2019-05-07T12:16:36.042Z,3.30
2019-05-07T12:19:49.978Z,3.10
2019-05-07T12:23:03.885Z,3.23
2019-05-07T12:26:17.485Z,3.03
2019-05-07T12:29:32.228Z,3.43
2019-05-07T12:32:54.422Z,3.10
2019-05-07T12:36:09.646Z,4.20
2019-05-07T12:39:23.297Z,3.90
2019-05-07T12:42:37.498Z,3.77
2019-05-07T12:45:52.511Z,3.73
2019-05-07T12:49:06.349Z,3.50
2019-05-07T12:52:34.959Z,3.87
2019-05-07T12:55:54.645Z,3.50
2019-05-07T12:59:08.876Z,3.10
2019-05-07T13:02:43.583Z,3.43
2019-05-07T13:05:56.025Z,3.40
2019-05-07T13:09:09.661Z,3.80
2019-05-07T13:12:23.310Z,2.97
2019-05-07T13:15:37.016Z,3.97
2019-05-07T13:18:52.466Z,3.70
2019-05-07T13:22:06.138Z,3.27
2019-05-07T13:25:21.605Z,3.40
2019-05-07T13:28:36.034Z,3.60
2019-05-07T13:31:54.339Z,3.50
2019-05-07T13:35:08.489Z,3.40
2019-05-07T13:38:44.681Z,3.67
2019-05-07T13:42:04.286Z,5.13
2019-05-07T13:45:41.687Z,6.73
2019-05-07T13:48:57.187Z,3.93
2019-05-07T13:52:11.824Z,8.27
2019-05-07T13:55:25.433Z,4.70
2019-05-07T13:58:39.155Z,3.53
2019-05-07T14:02:06.257Z,6.83
2019-05-07T14:05:21.761Z,3.33
2019-05-07T14:08:38.066Z,4.40
2019-05-07T14:11:52.864Z,4.50
2019-05-07T14:15:06.869Z,3.40
2019-05-07T14:18:23.229Z,3.67
2019-05-07T14:21:36.247Z,3.53
2019-05-07T14:24:50.366Z,3.97
2019-05-07T14:28:04.212Z,3.33
2019-05-07T14:31:17.918Z,3.67
2019-05-07T14:34:54.101Z,3.33
2019-05-07T14:38:13.886Z,3.30
2019-05-07T14:41:27.686Z,4.10
2019-05-07T14:44:48.364Z,4.93
2019-05-07T14:48:02.947Z,4.20
2019-05-07T14:51:17.149Z,3.07
2019-05-07T14:54:32.254Z,3.70
2019-05-07T14:57:46.289Z,3.77
2019-05-07T15:01:02.268Z,3.67
2019-05-07T15:04:15.679Z,3.27
2019-05-07T15:07:29.289Z,6.60
2019-05-07T15:10:43.338Z,6.50
2019-05-07T15:13:57.364Z,9.93
2019-05-07T15:17:24.275Z,27.87
2019-05-07T15:20:38.299Z,4.13
2019-05-07T15:23:53.994Z,3.87
2019-05-07T15:27:08.285Z,4.07
2019-05-07T15:30:23.412Z,3.50
2019-05-07T15:33:37.020Z,4.00
2019-05-07T15:36:52.608Z,5.97
2019-05-07T15:40:07.154Z,3.70
2019-05-07T15:43:21.065Z,3.10
2019-05-07T15:46:34.758Z,3.30
2019-05-07T15:49:48.260Z,4.00
2019-05-07T15:53:13.994Z,3.53
2019-05-07T15:56:27.506Z,3.40
2019-05-07T15:59:41.808Z,3.40
2019-05-07T16:03:06.281Z,3.20
2019-05-07T16:06:22.002Z,2.63
2019-05-07T16:09:44.435Z,3.27
2019-05-07T16:12:58.164Z,3.37
2019-05-07T16:16:12.108Z,3.37
2019-05-07T16:19:27.289Z,3.50
2019-05-07T16:22:44.520Z,3.20
2019-05-07T16:25:58.197Z,3.47
2019-05-07T16:29:13.275Z,4.30
2019-05-07T16:32:27.039Z,3.67
2019-05-07T16:35:42.552Z,5.17
2019-05-07T16:38:56.194Z,4.07
2019-05-07T16:42:09.948Z,3.00
2019-05-07T16:45:23.590Z,3.20
2019-05-07T16:48:37.472Z,2.80
2019-05-07T16:51:52.462Z,2.90
2019-05-07T16:55:06.533Z,2.70
2019-05-07T16:58:26.370Z,3.03
2019-05-07T17:01:40.021Z,3.63
2019-05-07T17:05:13.078Z,2.83
2019-05-07T17:08:31.866Z,2.57
2019-05-07T17:11:45.854Z,2.90
2019-05-07T17:14:59.682Z,2.50
2019-05-07T17:18:13.192Z,2.60
2019-05-07T17:21:26.715Z,2.80
2019-05-07T17:24:42.255Z,2.63
2019-05-07T17:27:55.853Z,25.73
2019-05-07T17:31:09.559Z,4.63
2019-05-07T17:34:23.102Z,2.57
2019-05-07T17:37:36.626Z,2.60
2019-05-07T17:40:52.178Z,2.77
2019-05-07T17:44:06.153Z,3.10
2019-05-07T17:47:21.838Z,2.60
2019-05-07T17:51:04.323Z,3.17
2019-05-07T17:54:17.998Z,3.40
2019-05-07T17:57:33.482Z,3.03
2019-05-07T18:00:49.317Z,4.43
2019-05-07T18:04:03.127Z,2.47
2019-05-07T18:07:16.656Z,2.50
2019-05-07T18:10:31.965Z,2.30
2019-05-07T18:13:45.874Z,2.50
2019-05-07T18:17:19.048Z,2.23
2019-05-07T18:20:32.910Z,2.67
2019-05-07T18:23:46.451Z,2.97
2019-05-07T18:27:01.911Z,7.40
2019-05-07T18:30:16.619Z,5.97
2019-05-07T18:33:52.471Z,11.43
2019-05-07T18:37:06.243Z,5.03
2019-05-07T18:40:20.592Z,3.30
2019-05-07T18:43:34.186Z,2.20
2019-05-07T18:46:47.815Z,2.43
2019-05-07T18:50:02.834Z,2.90
2019-05-07T18:53:16.561Z,2.50
2019-05-07T18:56:30.159Z,2.90
2019-05-07T18:59:43.654Z,2.93
2019-05-07T19:02:57.262Z,4.00
2019-05-07T19:06:13.147Z,3.50
2019-05-07T19:09:26.900Z,3.33
2019-05-07T19:12:42.060Z,3.67
2019-05-07T19:15:56.612Z,3.93
2019-05-07T19:19:12.321Z,3.23
2019-05-07T19:22:25.892Z,3.53
2019-05-07T19:25:41.900Z,3.60
2019-05-07T19:28:55.434Z,3.37
2019-05-07T19:32:12.102Z,3.40
2019-05-07T19:35:25.637Z,3.20
2019-05-07T19:38:39.231Z,3.53
2019-05-07T19:41:53.163Z,11.13
2019-05-07T19:45:06.861Z,8.27
2019-05-07T19:48:20.457Z,23.73
2019-05-07T19:51:33.957Z,12.30
2019-05-07T19:54:58.745Z,5.63
2019-05-07T19:58:05.285Z,4.20
2019-05-07T20:01:27.042Z,3.87
2019-05-07T20:04:42.647Z,4.43
2019-05-07T20:07:59.587Z,4.67
2019-05-07T20:11:17.684Z,5.57
2019-05-07T20:14:33.110Z,3.63
2019-05-07T20:17:46.865Z,4.00
2019-05-07T20:21:02.559Z,4.20
2019-05-07T20:24:15.985Z,10.73
2019-05-07T20:27:29.493Z,8.67
2019-05-07T20:30:43.340Z,4.53
2019-05-07T20:33:57.083Z,3.90
2019-05-07T20:37:12.722Z,6.97
2019-05-07T20:40:26.250Z,8.80
2019-05-07T20:43:39.756Z,4.70
2019-05-07T20:46:53.764Z,5.77
2019-05-07T20:50:07.601Z,4.37
2019-05-07T20:53:42.338Z,3.90
2019-05-07T20:57:02.250Z,4.20
2019-05-07T21:00:24.008Z,4.67
2019-05-07T21:03:37.502Z,4.50
2019-05-07T21:06:52.533Z,4.50
2019-05-07T21:10:06.580Z,4.73
2019-05-07T21:16:35.034Z,5.50
2019-05-07T21:19:48.627Z,5.10
2019-05-07T21:23:02.749Z,6.70
2019-05-07T21:26:16.267Z,5.27
2019-05-07T21:29:32.465Z,9.10
2019-05-07T21:32:45.545Z,11.23
2019-05-07T21:35:59.155Z,8.37
2019-05-07T21:39:13.197Z,10.83
2019-05-07T21:42:26.796Z,4.83
2019-05-07T21:45:42.325Z,7.20
2019-05-07T21:48:55.962Z,5.00
2019-05-07T21:52:09.437Z,4.30
2019-05-07T21:55:32.466Z,3.70
2019-05-07T21:58:54.105Z,4.40
2019-05-07T22:02:18.425Z,3.70
2019-05-07T22:05:31.949Z,3.70
2019-05-07T22:08:45.652Z,4.03
2019-05-07T22:11:59.238Z,6.07
2019-05-07T22:15:13.100Z,5.43
2019-05-07T22:18:26.569Z,4.70
2019-05-07T22:21:40.107Z,4.33
2019-05-07T22:24:53.589Z,4.10
2019-05-07T22:28:07.461Z,3.80
2019-05-07T22:31:44.184Z,4.57
2019-05-07T22:35:19.295Z,14.57
2019-05-07T22:38:32.895Z,7.10
2019-05-07T22:41:46.618Z,5.83
2019-05-07T22:45:02.623Z,5.40
2019-05-07T22:48:15.996Z,4.57
2019-05-07T22:51:29.476Z,4.40
2019-05-07T22:54:43.082Z,4.83
2019-05-07T22:58:04.728Z,4.53
2019-05-07T23:01:18.328Z,4.33
2019-05-07T23:04:32.656Z,4.33
2019-05-07T23:07:46.189Z,5.30
2019-05-07T23:10:59.690Z,4.57
2019-05-07T23:14:13.546Z,4.83
2019-05-07T23:17:27.321Z,4.07
2019-05-07T23:20:42.676Z,4.10
2019-05-07T23:23:56.492Z,5.00
2019-05-07T23:30:42.119Z,4.70
2019-05-07T23:33:55.642Z,4.50
2019-05-07T23:37:09.133Z,4.90
2019-05-07T23:40:30.452Z,4.63
2019-05-07T23:44:03.615Z,5.20
2019-05-07T23:47:17.213Z,4.97
2019-05-07T23:50:32.394Z,5.20
2019-05-07T23:53:46.398Z,5.00
2019-05-07T23:57:08.757Z,5.27
